Time;durP1;ratioP1;P1;durP2;ratioP2;P2;SDS_P1;SDS_P2;PMS_P1;PMS_P2;Temp;Humidity;BMP_temperature;BMP_pressure;BME280_temperature;BME280_humidity;BME280_pressure;Samples;Min_cycle;Max_cycle;Signal;HPM_P1;HPM_P2
2023/10/17 00:00:18;;;;;;;6.10;5.45;;;;;;;9.31;86.79;101796.69;3610371;39;20062;-67
2023/10/17 00:02:43;;;;;;;9.43;5.47;;;;;;;9.29;85.99;101791.41;3619577;39;20119;-67
2023/10/17 00:05:10;;;;;;;7.78;5.45;;;;;;;9.26;86.58;101786.16;3614841;39;20039;-66
2023/10/17 00:07:35;;;;;;;6.13;5.22;;;;;;;9.26;86.19;101794.22;3617286;39;20046;-66
2023/10/17 00:10:01;;;;;;;7.53;5.53;;;;;;;9.24;86.11;101798.75;3624208;39;20076;-66
2023/10/17 00:12:39;;;;;;;8.65;4.75;;;;;;;8.82;86.52;101728.97;3617514;39;20043;-66
2023/10/17 00:15:16;;;;;;;7.88;5.43;;;;;;;9.18;86.54;101782.03;3617597;39;20061;-67
2023/10/17 00:17:42;;;;;;;7.85;5.50;;;;;;;9.15;87.33;101784.84;3615329;39;20058;-66
2023/10/17 00:20:16;;;;;;;6.60;5.00;;;;;;;9.14;87.49;101785.78;3615190;39;20050;-67
2023/10/17 00:22:42;;;;;;;10.30;5.32;;;;;;;9.14;86.81;101788.47;3618466;39;20046;-66
2023/10/17 00:25:11;;;;;;;6.32;5.10;;;;;;;8.93;87.00;101750.84;3618489;39;20362;-67
2023/10/17 00:27:37;;;;;;;8.05;5.22;;;;;;;9.11;87.26;101786.78;3618688;39;20050;-66
2023/10/17 00:30:04;;;;;;;8.77;5.68;;;;;;;9.10;86.89;101782.31;3605342;39;20086;-67
2023/10/17 00:32:31;;;;;;;10.60;4.68;;;;;;;9.10;87.08;101773.41;3616507;39;20112;-66
2023/10/17 00:34:57;;;;;;;7.35;5.43;;;;;;;9.10;87.13;101768.03;3609281;39;20112;-66
2023/10/17 00:37:30;;;;;;;7.82;5.25;;;;;;;9.09;87.37;101760.94;3616701;39;20055;-66
2023/10/17 00:39:56;;;;;;;6.95;5.18;;;;;;;9.11;86.80;101759.09;3615846;39;20273;-66
2023/10/17 00:42:29;;;;;;;9.40;4.63;;;;;;;9.08;87.22;101760.06;3618171;39;20074;-66
2023/10/17 00:44:55;;;;;;;8.43;5.45;;;;;;;9.05;86.99;101760.19;3617064;39;20070;-67
2023/10/17 00:47:22;;;;;;;7.32;5.35;;;;;;;9.03;87.10;101762.94;3616934;39;20046;-67
2023/10/17 00:49:50;;;;;;;9.73;4.97;;;;;;;9.01;87.82;101759.44;3616058;39;20457;-66
2023/10/17 00:52:26;;;;;;;8.73;5.72;;;;;;;8.97;87.93;101760.50;3618710;39;20047;-66
2023/10/17 00:54:56;;;;;;;8.88;5.53;;;;;;;8.91;87.89;101746.47;3618444;39;20155;-66
2023/10/17 00:57:26;;;;;;;7.70;4.97;;;;;;;9.03;86.97;101762.94;3618559;39;20081;-66
2023/10/17 00:59:57;;;;;;;6.20;4.97;;;;;;;8.88;87.30;101742.13;3615412;39;20108;-66
2023/10/17 01:02:25;;;;;;;9.18;4.95;;;;;;;9.05;88.11;101766.44;3615098;39;20083;-66
2023/10/17 01:04:52;;;;;;;6.32;4.85;;;;;;;8.84;87.84;101724.38;3614305;39;20043;-66
2023/10/17 01:07:34;;;;;;;8.10;5.50;;;;;;;8.97;87.34;101752.44;3615085;39;20054;-66
2023/10/17 01:10:16;;;;;;;10.43;5.22;;;;;;;9.05;87.88;101766.44;3614710;39;20317;-66
2023/10/17 01:12:53;;;;;;;8.65;5.22;;;;;;;9.04;88.38;101764.69;3616037;39;20058;-66
2023/10/17 01:15:28;;;;;;;9.82;5.40;;;;;;;9.09;88.23;101771.66;3614700;39;20115;-66
2023/10/17 01:17:55;;;;;;;6.20;4.95;;;;;;;9.09;87.92;101772.53;3615329;39;20047;-67
2023/10/17 01:20:21;;;;;;;7.13;5.57;;;;;;;9.03;87.28;101768.28;3607918;39;20050;-67
2023/10/17 01:22:48;;;;;;;10.55;5.68;;;;;;;9.01;88.01;101759.44;3604146;39;20063;-66
2023/10/17 01:25:28;;;;;;;9.35;5.50;;;;;;;9.12;87.51;101771.53;3617965;39;20043;-66
2023/10/17 01:27:59;;;;;;;8.00;5.35;;;;;;;9.10;87.69;101758.19;3615830;39;20874;-66
2023/10/17 01:30:29;;;;;;;8.88;5.57;;;;;;;9.13;87.54;101759.88;3614615;39;20051;-67
2023/10/17 01:32:56;;;;;;;10.35;5.82;;;;;;;9.12;87.96;101747.41;3614005;39;20055;-66
2023/10/17 01:35:23;;;;;;;8.02;5.78;;;;;;;9.11;88.06;101748.34;3614536;39;20229;-67
2023/10/17 01:37:49;;;;;;;9.20;5.40;;;;;;;9.09;88.20;101756.44;3614339;39;20300;-67
2023/10/17 01:40:26;;;;;;;7.85;5.43;;;;;;;8.81;87.68;101709.28;3615507;39;20055;-67
2023/10/17 01:42:56;;;;;;;9.07;5.38;;;;;;;9.09;87.39;101758.25;3605630;39;20090;-67
2023/10/17 01:45:25;;;;;;;8.73;5.65;;;;;;;9.11;87.62;101753.72;3618287;39;20051;-67
2023/10/17 01:47:52;;;;;;;8.65;5.22;;;;;;;9.09;87.20;101751.09;3616253;39;20043;-67
2023/10/17 01:50:24;;;;;;;7.93;5.68;;;;;;;9.02;87.54;101729.00;3615622;39;20332;-67
2023/10/17 01:52:53;;;;;;;7.18;5.40;;;;;;;9.07;87.63;101743.13;3617982;39;20046;-67
2023/10/17 01:55:24;;;;;;;6.60;5.53;;;;;;;8.89;87.84;101705.44;3617331;39;20055;-66
2023/10/17 01:57:54;;;;;;;9.05;5.47;;;;;;;9.06;87.75;101725.25;3615044;39;20275;-67
2023/10/17 02:02:58;;;;;;;8.52;5.65;;;;;;;8.80;87.58;101685.25;3614602;39;20834;-67
2023/10/17 02:05:24;;;;;;;8.82;5.43;;;;;;;9.03;88.55;101721.81;3614913;39;20057;-67
2023/10/17 02:07:51;;;;;;;8.05;5.78;;;;;;;9.03;88.31;101716.47;3618316;39;20480;-67
2023/10/17 02:10:21;;;;;;;8.80;5.43;;;;;;;9.01;88.30;101715.69;3617243;39;20055;-67
2023/10/17 02:12:48;;;;;;;7.28;5.75;;;;;;;9.00;88.01;101709.41;3617780;39;20038;-67
2023/10/17 02:15:23;;;;;;;7.03;5.65;;;;;;;8.98;87.81;101705.94;3617341;39;20130;-67
2023/10/17 02:17:51;;;;;;;9.02;5.45;;;;;;;8.98;88.40;101705.94;3613640;39;20391;-67
2023/10/17 02:20:21;;;;;;;8.50;6.35;;;;;;;8.96;88.08;101702.44;3617431;39;20309;-67
2023/10/17 02:22:52;;;;;;;7.70;5.90;;;;;;;8.96;88.80;101699.75;3616237;39;20053;-67
2023/10/17 02:25:21;;;;;;;9.15;6.00;;;;;;;8.98;88.44;101689.84;3616700;39;20057;-67
2023/10/17 02:27:48;;;;;;;11.88;6.38;;;;;;;8.87;88.69;101665.28;3613882;39;20663;-67
2023/10/17 02:30:14;;;;;;;9.25;6.45;;;;;;;8.99;88.69;101693.41;3614114;39;20416;-67
2023/10/17 02:32:44;;;;;;;12.00;6.35;;;;;;;8.99;89.26;101701.44;3613601;39;20045;-67
2023/10/17 02:35:14;;;;;;;7.95;5.68;;;;;;;9.00;89.17;101709.41;3616123;39;20050;-66
2023/10/17 02:37:43;;;;;;;8.05;5.80;;;;;;;9.00;88.45;101704.06;3618198;39;20050;-67
2023/10/17 02:40:20;;;;;;;7.82;6.32;;;;;;;8.99;89.12;101705.00;3615359;39;20385;-67
2023/10/17 02:42:47;;;;;;;7.57;6.18;;;;;;;9.00;88.55;101708.53;3617713;39;20051;-67
2023/10/17 02:45:13;;;;;;;10.10;6.03;;;;;;;9.01;88.77;101711.19;3614112;39;20047;-67
2023/10/17 02:47:43;;;;;;;7.50;6.18;;;;;;;9.01;89.01;101713.88;3614329;39;20111;-67
2023/10/17 02:52:55;;;;;;;8.25;6.20;;;;;;;8.95;88.09;101710.56;3617811;39;20065;-67
2023/10/17 02:55:27;;;;;;;10.60;6.47;;;;;;;8.91;88.44;101709.81;3613989;39;20054;-67
2023/10/17 02:57:57;;;;;;;6.82;6.13;;;;;;;8.90;89.15;101700.00;3615620;39;20062;-67
2023/10/17 03:00:25;;;;;;;8.68;6.18;;;;;;;8.89;88.99;101700.94;3614903;39;20039;-67
2023/10/17 03:02:52;;;;;;;9.27;6.38;;;;;;;8.88;89.09;101693.84;3613747;39;20057;-67
2023/10/17 03:05:18;;;;;;;13.55;6.82;;;;;;;8.88;88.28;101696.53;3615962;39;20142;-67
2023/10/17 03:07:49;;;;;;;9.20;6.55;;;;;;;8.62;87.68;101654.69;3614133;39;20038;-67
2023/10/17 03:10:21;;;;;;;10.65;6.53;;;;;;;8.83;88.21;101702.06;3615608;39;20047;-67
2023/10/17 03:12:55;;;;;;;7.18;6.32;;;;;;;8.78;88.89;101687.09;3613664;39;20047;-67
2023/10/17 03:15:23;;;;;;;11.05;6.82;;;;;;;8.76;88.66;101683.63;3617080;39;20049;-68
2023/10/17 03:18:00;;;;;;;12.68;7.18;;;;;;;8.79;88.38;101696.91;3615300;39;20369;-67
2023/10/17 03:20:36;;;;;;;10.20;7.35;;;;;;;8.77;89.11;101696.09;3619599;39;20091;-67
2023/10/17 03:23:04;;;;;;;10.63;7.55;;;;;;;8.35;88.30;101624.50;3615441;39;20104;-67
2023/10/17 03:25:37;;;;;;;9.70;7.60;;;;;;;8.74;88.69;101694.41;3618244;39;20067;-67
2023/10/17 03:28:13;;;;;;;10.45;7.93;;;;;;;8.72;89.45;101687.34;3616389;39;20043;-67
2023/10/17 03:30:40;;;;;;;12.23;7.63;;;;;;;8.63;88.37;101676.97;3607290;39;20043;-66
2023/10/17 03:33:08;;;;;;;9.50;7.00;;;;;;;8.71;88.24;101699.00;3610195;39;20051;-67
2023/10/17 03:38:23;;;;;;;10.10;7.80;;;;;;;8.76;89.57;101710.44;3619713;39;20403;-67
2023/10/17 03:40:53;;;;;;;10.68;7.97;;;;;;;8.77;89.63;101701.44;3616948;39;20053;-67
2023/10/17 03:43:28;;;;;;;13.07;8.85;;;;;;;8.67;89.18;101681.31;3618340;39;20389;-67
2023/10/17 03:45:57;;;;;;;11.27;8.40;;;;;;;8.66;89.37;101676.88;3616471;39;20132;-66
2023/10/17 03:48:36;;;;;;;12.73;8.23;;;;;;;8.79;88.53;101699.59;3617748;39;20047;-67
2023/10/17 03:53:32;;;;;;;11.60;7.80;;;;;;;8.78;88.64;101708.53;3615591;39;20065;-67
2023/10/17 03:56:00;;;;;;;10.77;7.55;;;;;;;8.77;89.13;101707.66;3622455;39;20089;-67
2023/10/17 03:58:43;;;;;;;11.07;7.93;;;;;;;8.79;89.07;101715.66;3615568;39;20043;-67
2023/10/17 04:01:10;;;;;;;11.15;8.27;;;;;;;8.81;88.83;101717.31;3620103;39;20369;-67
2023/10/17 04:03:37;;;;;;;11.10;8.45;;;;;;;8.77;89.25;101701.44;3616767;39;20066;-67
2023/10/17 04:08:37;;;;;;;11.80;8.23;;;;;;;8.81;89.49;101709.28;3616920;39;20043;-67
2023/10/17 04:13:49;;;;;;;12.40;8.48;;;;;;;8.35;89.38;101630.72;3619542;39;19941;-67
2023/10/17 04:16:21;;;;;;;13.95;8.80;;;;;;;8.69;89.17;101683.00;3618398;39;20051;-67
2023/10/17 04:18:55;;;;;;;13.98;8.98;;;;;;;8.77;88.99;101702.31;3608343;39;20058;-67
2023/10/17 04:23:55;;;;;;;12.85;9.10;;;;;;;8.66;89.38;101680.44;3616934;39;20362;-67
2023/10/17 04:26:27;;;;;;;12.05;8.90;;;;;;;8.78;89.39;101711.22;3606682;39;20212;-67
2023/10/17 04:28:55;;;;;;;14.80;9.27;;;;;;;8.82;89.21;101710.19;3615623;39;20553;-67
2023/10/17 04:31:25;;;;;;;13.00;8.93;;;;;;;8.62;88.84;101681.47;3616244;39;20408;-67
2023/10/17 04:34:06;;;;;;;14.43;9.18;;;;;;;8.80;89.03;101717.41;3615117;39;20051;-67
2023/10/17 04:36:37;;;;;;;14.88;9.18;;;;;;;8.83;88.67;101715.47;3616747;39;20102;-67
2023/10/17 04:44:18;;;;;;;14.77;9.75;;;;;;;8.80;88.42;101722.78;3618189;39;20057;-67
2023/10/17 04:47:06;;;;;;;13.15;9.15;;;;;;;8.73;88.40;101715.91;3615571;39;20259;-67
2023/10/17 04:49:35;;;;;;;12.43;9.65;;;;;;;8.66;88.89;101690.25;3616036;39;20050;-67
2023/10/17 04:52:19;;;;;;;16.80;9.80;;;;;;;8.77;89.20;101709.50;3608660;39;20081;-67
2023/10/17 04:54:47;;;;;;;14.52;9.82;;;;;;;8.76;88.70;101711.31;3614058;39;20057;-67
2023/10/17 04:57:16;;;;;;;14.82;9.80;;;;;;;8.77;88.84;101706.81;3616745;39;20053;-67
2023/10/17 06:18:57;;;;;;;16.30;11.07;;;;;;;8.68;88.47;101680.38;3617781;39;20116;-67
2023/10/17 06:21:36;;;;;;;17.20;12.18;;;;;;;8.71;88.28;101696.31;3615452;39;20063;-67
2023/10/17 06:24:45;;;;;;;24.85;11.75;;;;;;;8.70;87.95;101691.91;3617035;39;20112;-65
2023/10/17 06:26:59;;;;;;;17.50;11.80;;;;;;;8.73;88.48;101694.47;3614247;39;20042;-65
2023/10/17 06:32:15;;;;;;;15.77;11.43;;;;;;;8.63;88.50;101676.97;3613716;39;20313;-65
2023/10/17 06:34:42;;;;;;;15.50;11.57;;;;;;;8.68;88.29;101680.38;3606222;39;20074;-65
2023/10/17 06:37:09;;;;;;;16.05;11.70;;;;;;;8.78;88.05;101687.09;3616389;39;20058;-65
2023/10/17 06:39:45;;;;;;;16.75;12.73;;;;;;;8.80;87.77;101691.47;3615160;39;20051;-65
2023/10/17 06:42:31;;;;;;;16.33;11.73;;;;;;;8.84;88.84;101692.22;3617024;39;20462;-65
2023/10/17 06:45:08;;;;;;;17.27;12.10;;;;;;;8.84;88.19;101693.06;3615040;39;20047;-65
2023/10/17 06:47:47;;;;;;;16.80;12.30;;;;;;;8.89;88.27;101695.59;3613515;39;20058;-65
2023/10/17 06:55:28;;;;;;;17.27;12.05;;;;;;;8.89;87.35;101700.94;3613960;39;20084;-65
2023/10/17 06:57:57;;;;;;;14.48;11.82;;;;;;;8.92;87.69;101708.00;3606202;39;20078;-66
2023/10/17 07:03:08;;;;;;;15.88;11.93;;;;;;;9.02;87.31;101715.59;3617475;39;20087;-66
2023/10/17 07:05:35;;;;;;;13.93;11.50;;;;;;;9.04;87.00;101721.78;3617444;39;20340;-65
2023/10/17 07:08:01;;;;;;;12.85;11.52;;;;;;;9.08;87.15;101714.47;3615341;39;20131;-66
2023/10/17 07:13:54;;;;;;;15.55;11.95;;;;;;;9.10;87.03;101699.19;3616544;39;20119;-66
2023/10/17 07:16:33;;;;;;;;;;;;;;;8.63;87.41;101618.03;3616160;39;20077;-66
2023/10/17 07:19:23;;;;;;;15.30;11.18;;;;;;;9.14;87.50;101695.44;3622270;39;20197;-66
2023/10/17 07:22:05;;;;;;;15.02;11.75;;;;;;;9.14;85.96;101694.59;3615783;39;20060;-66
2023/10/17 07:24:36;;;;;;;18.35;12.07;;;;;;;9.18;86.61;101685.47;3615479;39;20144;-66
2023/10/17 07:27:18;;;;;;;13.57;11.68;;;;;;;9.20;86.63;101687.16;3617502;39;20320;-66
2023/10/17 07:30:03;;;;;;;14.07;11.40;;;;;;;9.24;86.23;101685.19;3618109;39;20050;-66
2023/10/17 07:32:32;;;;;;;16.00;11.52;;;;;;;9.29;85.54;101691.22;3617448;39;20382;-66
2023/10/17 07:35:01;;;;;;;20.85;12.13;;;;;;;9.34;86.02;101691.91;3615538;39;20124;-65
2023/10/17 07:37:27;;;;;;;17.80;11.40;;;;;;;9.35;86.31;101698.16;3615187;39;20042;-66
2023/10/17 07:42:42;;;;;;;14.15;10.55;;;;;;;9.50;85.80;101709.09;3615525;39;20115;-66
2023/10/17 07:45:15;;;;;;;16.45;10.57;;;;;;;9.52;84.76;101704.53;3615278;39;20413;-66
2023/10/17 07:47:43;;;;;;;11.85;10.35;;;;;;;9.53;83.81;101703.59;3617776;39;20115;-66
2023/10/17 07:50:13;;;;;;;14.82;10.77;;;;;;;9.60;85.06;101698.84;3605896;39;20047;-66
2023/10/17 07:52:43;;;;;;;14.73;10.20;;;;;;;9.65;83.71;101702.19;3615056;39;20050;-66
2023/10/17 07:55:23;;;;;;;13.63;10.40;;;;;;;9.66;83.95;101700.38;3615198;39;20046;-65
2023/10/17 07:57:52;;;;;;;15.35;9.80;;;;;;;9.67;83.10;101704.78;3616132;39;20167;-65
2023/10/17 08:00:36;;;;;;;10.88;9.50;;;;;;;9.65;83.27;101701.34;3617907;39;20039;-65
2023/10/17 08:03:18;;;;;;;14.20;10.25;;;;;;;9.66;83.40;101697.69;3615777;39;20054;-66
2023/10/17 08:08:46;;;;;;;13.23;9.77;;;;;;;9.59;84.19;101696.22;3600263;39;20355;-65
2023/10/17 08:11:26;;;;;;;13.00;10.05;;;;;;;9.62;84.58;101686.22;3615240;39;20091;-66
2023/10/17 08:13:55;;;;;;;14.90;9.40;;;;;;;9.79;85.19;101696.22;3615232;39;20062;-65
2023/10/17 08:16:25;;;;;;;13.88;9.48;;;;;;;9.95;83.48;101689.19;3617570;39;20160;-66
2023/10/17 08:21:40;;;;;;;12.40;9.48;;;;;;;10.54;81.53;101689.22;3616637;39;20408;-65
2023/10/17 08:24:07;;;;;;;10.88;7.72;;;;;;;10.78;79.29;101692.53;3615491;39;20039;-66
2023/10/17 08:26:40;;;;;;;13.35;7.82;;;;;;;10.97;77.59;101684.41;3616379;39;20059;-66
2023/10/17 08:29:08;;;;;;;13.35;8.20;;;;;;;11.17;76.79;101686.13;3617883;39;20098;-66
2023/10/17 08:31:52;;;;;;;8.27;7.35;;;;;;;11.37;75.23;101684.16;3615628;39;20090;-66
2023/10/17 08:34:18;;;;;;;9.63;7.20;;;;;;;11.60;75.51;101687.47;3615623;39;20053;-66
2023/10/17 08:36:47;;;;;;;11.75;7.38;;;;;;;11.85;75.04;101679.88;3615860;39;20297;-66
2023/10/17 08:42:05;;;;;;;7.65;6.75;;;;;;;12.32;70.23;101679.09;3617349;39;20044;-66
2023/10/17 08:44:37;;;;;;;8.55;6.38;;;;;;;12.51;69.20;101684.34;3616459;39;20269;-66
2023/10/17 08:47:04;;;;;;;6.22;5.35;;;;;;;12.69;67.20;101687.84;3615662;39;20057;-66
2023/10/17 08:49:31;;;;;;;7.47;5.65;;;;;;;12.86;67.37;101686.84;3615672;39;20046;-66
2023/10/17 08:51:58;;;;;;;7.43;5.78;;;;;;;13.00;65.51;101686.94;3615202;39;20047;-66
2023/10/17 08:54:30;;;;;;;7.47;5.53;;;;;;;13.06;65.81;101701.88;3618132;39;20047;-66
2023/10/17 08:57:00;;;;;;;7.33;4.73;;;;;;;13.27;64.13;101705.19;3617366;39;20043;-66
2023/10/17 09:05:18;;;;;;;5.63;4.90;;;;;;;13.63;61.71;101710.22;3614475;39;20135;-66
2023/10/17 09:07:55;;;;;;;6.40;4.95;;;;;;;13.68;62.33;101705.41;3614414;39;20051;-66
2023/10/17 09:10:35;;;;;;;8.75;4.82;;;;;;;13.77;61.18;101704.00;3614969;39;20039;-67
2023/10/17 09:15:57;;;;;;;6.53;4.53;;;;;;;13.94;61.42;101694.84;3614567;39;20042;-66
2023/10/17 09:18:28;;;;;;;6.80;4.35;;;;;;;13.85;59.82;101690.88;3606737;39;20409;-66
2023/10/17 09:20:56;;;;;;;6.90;4.80;;;;;;;13.83;59.54;101687.41;3614757;39;20317;-66
2023/10/17 09:23:30;;;;;;;6.88;4.40;;;;;;;13.96;59.85;101687.50;3614235;39;20090;-66
2023/10/17 09:26:07;;;;;;;5.90;4.22;;;;;;;14.15;59.83;101693.50;3605953;39;20046;-66
2023/10/17 09:28:35;;;;;;;6.70;4.40;;;;;;;14.43;60.24;101694.47;3604269;39;20080;-66
2023/10/17 09:31:03;;;;;;;6.70;4.60;;;;;;;14.61;59.34;101692.41;3616488;39;20057;-67
2023/10/17 09:33:34;;;;;;;7.80;4.20;;;;;;;14.78;57.31;101704.84;3613824;39;20382;-66
2023/10/17 09:36:06;;;;;;;6.15;4.20;;;;;;;14.78;56.51;101692.19;3614322;39;20046;-66
2023/10/17 09:38:34;;;;;;;7.18;3.90;;;;;;;15.05;57.99;101689.50;3614060;39;20039;-67
2023/10/17 09:41:05;;;;;;;5.78;3.80;;;;;;;15.24;56.08;101689.13;3614591;39;20116;-67
2023/10/17 09:43:31;;;;;;;6.07;4.82;;;;;;;15.28;54.38;101684.34;3615510;39;20284;-67
2023/10/17 09:46:09;;;;;;;8.95;5.03;;;;;;;15.40;54.62;101694.34;3614566;39;20421;-65
2023/10/17 09:48:38;;;;;;;8.18;3.72;;;;;;;15.59;55.93;101687.69;3617320;39;20049;-65
2023/10/17 09:51:05;;;;;;;6.97;3.78;;;;;;;15.74;55.69;101681.22;3614623;39;20047;-65
2023/10/17 09:53:34;;;;;;;5.22;3.38;;;;;;;15.98;54.95;101682.22;3620974;39;20057;-66
2023/10/17 09:56:21;;;;;;;4.07;3.15;;;;;;;16.20;51.55;101681.53;3614202;39;20061;-65
2023/10/17 09:58:53;;;;;;;7.70;3.17;;;;;;;16.22;50.33;101686.88;3616733;39;20086;-65
2023/10/17 10:01:24;;;;;;;4.68;3.10;;;;;;;16.18;52.39;101685.34;3619443;39;20058;-66
2023/10/17 10:04:01;;;;;;;5.65;3.10;;;;;;;16.31;50.86;101697.06;3614504;39;20062;-65
2023/10/17 10:06:33;;;;;;;7.30;2.90;;;;;;;16.34;51.56;101693.25;3614978;39;20046;-65
2023/10/17 10:09:06;;;;;;;6.85;3.28;;;;;;;16.46;49.86;101692.38;3617852;39;20066;-64
2023/10/17 10:11:52;;;;;;;5.47;2.90;;;;;;;16.53;49.61;101690.06;3613766;39;20050;-65
2023/10/17 10:14:23;;;;;;;4.10;3.10;;;;;;;16.34;49.44;101699.53;3613905;39;20329;-64
2023/10/17 10:16:57;;;;;;;5.72;3.28;;;;;;;16.39;49.80;101694.63;3614687;39;20067;-64
2023/10/17 10:19:44;;;;;;;5.18;3.00;;;;;;;16.52;50.30;101688.31;3614323;39;20057;-65
2023/10/17 10:22:19;;;;;;;4.68;3.10;;;;;;;16.66;50.11;101680.03;3618924;39;20346;-65
2023/10/17 10:25:02;;;;;;;4.80;2.90;;;;;;;16.62;50.26;101654.13;3613781;39;20067;-64
2023/10/17 10:27:28;;;;;;;6.75;3.22;;;;;;;16.99;50.33;101673.09;3614026;39;20042;-64
2023/10/17 10:30:36;;;;;;;5.72;2.72;;;;;;;17.01;48.12;101672.00;3616755;39;20301;-65
2023/10/17 10:33:02;;;;;;;4.15;3.13;;;;;;;17.12;49.44;101672.03;3614121;39;20058;-65
2023/10/17 10:35:32;;;;;;;4.40;2.55;;;;;;;17.23;47.56;101652.22;3616634;39;20281;-65
2023/10/17 10:37:59;;;;;;;5.07;2.70;;;;;;;17.36;46.25;101672.03;3616359;39;20051;-64
2023/10/17 10:40:32;;;;;;;3.80;2.50;;;;;;;17.57;47.42;101660.47;3615999;39;20122;-65
2023/10/17 10:43:01;;;;;;;3.67;2.67;;;;;;;17.67;45.50;101656.06;3614686;39;20055;-65
2023/10/17 10:45:28;;;;;;;4.88;2.63;;;;;;;17.77;45.74;101651.66;3606652;39;20054;-64
2023/10/17 10:48:00;;;;;;;4.78;2.70;;;;;;;17.76;45.53;101644.47;3614418;39;20119;-65
2023/10/17 10:50:29;;;;;;;3.95;2.60;;;;;;;17.77;45.17;101643.50;3618200;39;20035;-64
2023/10/17 10:52:57;;;;;;;3.45;2.83;;;;;;;17.96;43.99;101651.06;3614719;39;20058;-63
2023/10/17 10:55:27;;;;;;;4.13;2.60;;;;;;;17.94;44.51;101642.13;3615415;39;20054;-64
2023/10/17 10:57:54;;;;;;;3.78;2.58;;;;;;;18.01;44.91;101624.31;3614761;39;20059;-65
2023/10/17 11:00:21;;;;;;;5.10;2.50;;;;;;;18.05;44.73;101641.31;3614134;39;20307;-64
2023/10/17 11:02:46;;;;;;;3.85;3.10;;;;;;;18.17;44.51;101637.56;3613816;39;20123;-64
2023/10/17 11:05:15;;;;;;;3.35;2.50;;;;;;;18.28;42.62;101634.84;3616619;39;20055;-64
2023/10/17 11:07:42;;;;;;;3.80;2.45;;;;;;;18.35;43.15;101628.91;3614305;39;20038;-64
2023/10/17 11:10:18;;;;;;;4.32;2.50;;;;;;;18.23;42.55;101626.19;3604220;39;20069;-64
2023/10/17 11:12:53;;;;;;;3.55;2.28;;;;;;;18.27;43.11;101616.78;3615017;39;20051;-64
2023/10/17 11:15:21;;;;;;;2.90;2.40;;;;;;;18.42;41.63;101621.97;3614160;39;20043;-64
2023/10/17 11:17:47;;;;;;;5.25;2.50;;;;;;;18.46;41.83;101627.03;3606808;39;20078;-63
2023/10/17 11:20:18;;;;;;;2.70;2.28;;;;;;;18.60;42.57;101625.03;3613944;39;20059;-64
2023/10/17 11:22:46;;;;;;;4.38;2.22;;;;;;;18.66;41.11;101608.19;3604126;39;20077;-64
2023/10/17 11:25:26;;;;;;;4.10;2.30;;;;;;;18.85;41.06;101610.25;3613802;39;20047;-63
2023/10/17 11:28:08;;;;;;;3.22;2.30;;;;;;;18.92;40.42;101606.00;3614076;39;20063;-64
2023/10/17 11:30:40;;;;;;;4.05;2.40;;;;;;;18.77;41.81;101580.91;3613851;39;20055;-64
2023/10/17 11:33:11;;;;;;;4.40;2.08;;;;;;;19.10;40.58;101596.28;3615139;39;20047;-64
2023/10/17 11:35:52;;;;;;;2.47;1.88;;;;;;;19.25;40.76;101592.22;3613421;39;20069;-64
2023/10/17 11:38:38;;;;;;;3.65;2.30;;;;;;;19.47;41.56;101590.34;3613383;39;20043;-64
2023/10/17 11:41:07;;;;;;;3.10;2.17;;;;;;;19.59;38.88;101577.50;3614851;39;20374;-64
2023/10/17 11:43:51;;;;;;;3.20;2.10;;;;;;;19.71;38.40;101577.31;3614187;39;20083;-64
2023/10/17 11:46:37;;;;;;;3.35;2.28;;;;;;;19.71;39.10;101577.31;3616850;39;20051;-63
2023/10/17 11:49:29;;;;;;;2.50;1.90;;;;;;;19.85;39.54;101588.84;3615447;39;20053;-63
2023/10/17 11:52:10;;;;;;;3.42;2.22;;;;;;;19.90;38.88;101581.13;3615697;39;20100;-64
2023/10/17 11:55:01;;;;;;;3.58;2.10;;;;;;;19.47;39.04;101583.06;3615126;39;20055;-64
2023/10/17 11:57:29;;;;;;;3.83;2.35;;;;;;;19.65;39.13;101583.31;3615104;39;20046;-64
2023/10/17 12:02:48;;;;;;;5.18;2.22;;;;;;;20.04;39.31;101591.66;3617172;39;20288;-65
2023/10/17 12:05:18;;;;;;;4.43;1.92;;;;;;;20.11;38.51;101590.13;3617599;39;20047;-63
2023/10/17 12:07:53;;;;;;;3.33;1.70;;;;;;;20.24;38.69;101598.09;3615130;39;20057;-62
2023/10/17 12:10:20;;;;;;;2.30;2.00;;;;;;;20.30;37.70;101593.94;3615150;39;20043;-63
2023/10/17 12:12:47;;;;;;;1.85;1.52;;;;;;;20.30;36.92;101588.47;3615770;39;20046;-63
2023/10/17 12:15:13;;;;;;;3.47;1.60;;;;;;;19.97;36.96;101555.03;3619179;39;20127;-63
2023/10/17 12:17:40;;;;;;;6.15;1.92;;;;;;;19.59;38.05;101540.19;3616263;39;20124;-63
2023/10/17 12:20:11;;;;;;;5.85;3.00;;;;;;;19.54;37.75;101557.97;3619494;39;20062;-63
2023/10/17 12:22:37;;;;;;;4.22;2.15;;;;;;;19.47;38.99;101554.91;3614829;39;20041;-63
2023/10/17 12:25:04;;;;;;;3.95;2.10;;;;;;;19.40;39.17;101549.13;3615857;39;20282;-63
2023/10/17 12:27:30;;;;;;;2.83;2.20;;;;;;;19.05;39.35;101518.63;3617506;39;20046;-63
2023/10/17 12:29:56;;;;;;;3.58;2.22;;;;;;;19.04;40.32;101539.56;3615861;39;20459;-64
2023/10/17 12:32:22;;;;;;;5.45;2.55;;;;;;;19.35;41.13;101528.72;3614956;39;20106;-63
2023/10/17 12:34:49;;;;;;;4.85;2.00;;;;;;;19.61;39.25;101524.56;3615045;39;20071;-63
2023/10/17 12:37:17;;;;;;;6.05;2.10;;;;;;;19.92;38.86;101510.94;3620219;39;20063;-64
2023/10/17 12:39:44;;;;;;;2.97;2.08;;;;;;;20.40;39.81;101516.47;3620849;39;20042;-63
2023/10/17 12:42:11;;;;;;;2.97;2.10;;;;;;;20.48;38.01;101503.97;3616456;39;20321;-63
2023/10/17 12:44:36;;;;;;;4.40;2.20;;;;;;;20.41;37.38;101500.94;3606402;39;20065;-63
2023/10/17 12:47:02;;;;;;;2.63;1.95;;;;;;;20.31;37.26;101492.75;3614420;39;20058;-64
2023/10/17 12:49:28;;;;;;;3.28;2.25;;;;;;;20.35;38.60;101488.72;3614633;39;20058;-63
2023/10/17 12:51:54;;;;;;;4.07;2.13;;;;;;;20.41;39.28;101492.75;3614227;39;20287;-64
2023/10/17 12:54:19;;;;;;;4.25;2.40;;;;;;;20.42;37.14;101478.09;3617189;39;20384;-64
2023/10/17 12:56:45;;;;;;;4.75;2.10;;;;;;;20.40;38.01;101480.13;3616260;39;20051;-64
2023/10/17 12:59:13;;;;;;;6.43;2.30;;;;;;;20.51;38.72;101468.19;3616783;39;20071;-63
2023/10/17 13:01:40;;;;;;;3.38;2.53;;;;;;;20.56;38.02;101465.94;3614966;39;20047;-63
2023/10/17 13:04:07;;;;;;;6.55;2.13;;;;;;;20.68;37.76;101472.09;3616002;39;20670;-64
2023/10/17 13:06:34;;;;;;;2.97;2.35;;;;;;;20.70;37.82;101473.66;3614572;39;20047;-64
2023/10/17 13:09:00;;;;;;;3.13;2.20;;;;;;;20.73;38.43;101478.00;3614913;39;20132;-64
2023/10/17 13:11:27;;;;;;;2.47;2.28;;;;;;;20.61;38.71;101467.22;3618136;39;20595;-64
2023/10/17 13:13:54;;;;;;;3.63;2.25;;;;;;;20.50;38.56;101459.13;3616839;39;20054;-64
2023/10/17 13:16:23;;;;;;;5.45;2.30;;;;;;;20.17;38.50;101469.47;3617618;39;20414;-64
2023/10/17 13:18:50;;;;;;;3.03;1.95;;;;;;;20.07;38.87;101452.19;3614535;39;20538;-64
2023/10/17 13:21:20;;;;;;;2.15;1.95;;;;;;;20.19;39.11;101466.59;3616366;39;20054;-63
2023/10/17 13:23:46;;;;;;;3.30;2.03;;;;;;;20.15;39.10;101466.00;3615815;39;20474;-63
2023/10/17 13:26:15;;;;;;;4.50;2.30;;;;;;;20.06;38.34;101427.78;3603818;39;20055;-64
2023/10/17 13:28:41;;;;;;;3.03;2.38;;;;;;;20.09;39.10;101472.03;3619421;39;20119;-64
2023/10/17 13:31:16;;;;;;;3.25;2.40;;;;;;;19.97;39.42;101464.97;3614324;39;20106;-65
2023/10/17 13:33:43;;;;;;;6.13;2.53;;;;;;;19.89;39.27;101459.34;3615291;39;20042;-64
2023/10/17 13:36:16;;;;;;;5.18;2.42;;;;;;;19.83;39.67;101460.78;3606861;39;20160;-64
2023/10/17 13:38:43;;;;;;;5.00;2.75;;;;;;;20.03;40.02;101456.22;3616237;39;20311;-63
2023/10/17 13:41:10;;;;;;;2.83;2.30;;;;;;;20.16;39.57;101445.88;3617636;39;20087;-63
2023/10/17 13:43:38;;;;;;;3.65;2.20;;;;;;;20.57;39.64;101435.72;3606844;39;20045;-63
2023/10/17 13:46:12;;;;;;;4.50;2.75;;;;;;;20.78;38.73;101446.50;3607447;39;20050;-63
2023/10/17 13:48:40;;;;;;;3.00;2.30;;;;;;;20.67;38.64;101445.78;3604922;39;20054;-63
2023/10/17 13:51:06;;;;;;;4.18;2.53;;;;;;;20.66;38.34;101453.13;3613886;39;20580;-63
2023/10/17 13:53:36;;;;;;;6.53;2.70;;;;;;;20.42;38.19;101450.78;3614832;39;20412;-63
2023/10/17 13:56:07;;;;;;;4.05;3.00;;;;;;;19.83;38.87;101451.72;3614263;39;20059;-63
2023/10/17 13:58:38;;;;;;;5.60;3.00;;;;;;;19.86;40.72;101449.59;3618335;39;20287;-63
2023/10/17 14:01:27;;;;;;;4.07;2.85;;;;;;;20.10;39.31;101440.13;3614344;39;20066;-63
2023/10/17 14:03:50;;;;;;;4.43;2.60;;;;;;;20.11;39.83;101437.28;3614390;39;20047;-63